Estación Meteorológica Peña el Pijo (Robertgarden) [ 02/03/23 03:08:15 CET ]

Fecha Hora Presion(HPa) Temp (°C) Humedad % Rocio (°C) Viento ( m/s) Direccion Lluvia 1Hora(mm) Lluvia 24H(mm) LLuvia Total(mm)
2012-May-03 01:01:16 1008.600 6.9 71 2.0         158.50
2012-May-03 02:01:13 1008.400 5.6 75 1.5         158.50
2012-May-03 03:03:34 1008.200 4.8 79 1.4         158.50
2012-May-03 04:01:17 1007.800 4.6 80 1.4         158.50
2012-May-03 05:01:19 1007.600 3.8 82 1.0         158.50
2012-May-03 06:01:17 1007.200 3.3 84 0.8         158.50
2012-May-03 07:01:15 1007.100 2.9 85 0.6         158.50
2012-May-03 08:01:17 1007.400 3.9 87 1.9         158.50
2012-May-03 09:01:15 1007.500 9.8 73 5.2 0.6 SSW     158.50
2012-May-03 10:01:19 1007.500 15.0 54 5.7 1.1 E     158.50
2012-May-03 11:01:21 1007.300 18.6 37 3.5         158.50
2012-May-03 12:01:17 1007.100 20.3 31 2.6 1.2 E     158.50
2012-May-03 13:01:13 1006.800 21.7 29 2.9         158.50
2012-May-03 14:01:17 1006.400 21.8 28 2.4         158.50
2012-May-03 15:01:12 1005.800 19.8 30 1.7 0.5 E     158.50
2012-May-03 16:01:12 1005.300 19.6 31 2.0 0.5 NNE     158.50
2012-May-03 17:01:18 1005.000 19.2 31 1.7         158.50
2012-May-03 18:01:16 1004.700 19.5 32 2.3         158.50
2012-May-03 19:01:16 1004.900 16.7 48 5.6 2.6 E     158.50
2012-May-03 20:01:14 1005.500 15.0 50 4.7         158.50
2012-May-03 21:01:14 1006.000 13.2 60 5.6         158.50
2012-May-03 22:01:12 1006.500 11.5 65 5.1         158.50
2012-May-03 23:01:12 1006.700 9.8 71 4.8         158.50

Temperatura Máxima:21°    Temperatura Mínima:
Presión Máxima:1008.600 Hpa    Presión Mínima:1004.700 Hpa


Volver